createdAt,value
2022-10-22T00:02:12.110Z,0.40
2022-10-22T00:07:14.188Z,0.65
2022-10-22T00:12:16.111Z,0.50
2022-10-22T00:17:17.593Z,0.40
2022-10-22T00:22:18.999Z,0.40
2022-10-22T00:27:20.389Z,0.50
2022-10-22T00:32:22.107Z,0.60
2022-10-22T00:37:23.546Z,0.70
2022-10-22T00:42:27.363Z,0.45
2022-10-22T00:47:35.217Z,0.63
2022-10-22T00:52:36.664Z,0.70
2022-10-22T00:57:38.226Z,0.77
2022-10-22T01:02:39.824Z,0.70
2022-10-22T01:07:45.178Z,0.50
2022-10-22T01:13:22.011Z,0.70
2022-10-22T01:18:38.627Z,0.50
2022-10-22T01:23:59.772Z,0.68
2022-10-22T01:29:13.124Z,0.70
2022-10-22T01:39:49.439Z,0.75
2022-10-22T01:44:50.821Z,0.70
2022-10-22T01:50:14.362Z,0.80
2022-10-22T01:55:41.812Z,0.85
2022-10-22T02:00:50.527Z,0.75
2022-10-22T02:05:56.719Z,0.90
2022-10-22T02:10:59.287Z,0.80
2022-10-22T02:16:01.794Z,0.80
2022-10-22T02:21:03.691Z,0.70
2022-10-22T02:26:32.559Z,0.68
2022-10-22T02:31:39.021Z,0.75
2022-10-22T02:36:46.667Z,0.63
2022-10-22T02:41:51.345Z,0.73
2022-10-22T02:46:52.777Z,0.65
2022-10-22T02:51:54.210Z,0.50
2022-10-22T03:02:19.470Z,0.50
2022-10-22T03:07:20.896Z,0.65
2022-10-22T03:12:22.527Z,0.60
2022-10-22T03:17:24.324Z,0.50
2022-10-22T03:22:29.251Z,0.60
2022-10-22T03:27:30.658Z,0.57
2022-10-22T03:32:32.043Z,0.85
2022-10-22T03:37:34.473Z,0.60
2022-10-22T03:42:35.878Z,0.77
2022-10-22T03:47:37.626Z,0.55
2022-10-22T03:52:40.008Z,0.73
2022-10-22T04:03:04.894Z,0.80
2022-10-22T04:08:06.401Z,0.80
2022-10-22T04:13:07.764Z,0.80
2022-10-22T04:18:09.152Z,1.13
2022-10-22T04:23:10.669Z,1.02
2022-10-22T04:28:12.059Z,0.82
2022-10-22T04:33:13.436Z,0.77
2022-10-22T04:43:39.288Z,1.10
2022-10-22T04:48:42.120Z,1.08
2022-10-22T04:53:44.025Z,0.90
2022-10-22T04:58:45.487Z,1.30
2022-10-22T05:03:48.698Z,1.20
2022-10-22T05:08:55.683Z,1.45
2022-10-22T05:13:58.682Z,1.33
2022-10-22T05:19:01.892Z,1.50
2022-10-22T05:24:03.434Z,1.30
2022-10-22T05:29:04.856Z,1.70
2022-10-22T05:34:06.296Z,1.52
2022-10-22T05:39:07.803Z,2.10
2022-10-22T05:44:11.919Z,1.50
2022-10-22T05:49:15.317Z,1.45
2022-10-22T05:54:19.110Z,1.05
2022-10-22T05:59:20.485Z,1.08
2022-10-22T06:04:21.906Z,1.13
2022-10-22T06:09:30.462Z,1.35
2022-10-22T06:14:31.930Z,1.15
2022-10-22T06:19:33.353Z,1.05
2022-10-22T06:24:34.761Z,1.33
2022-10-22T06:29:36.158Z,1.40
2022-10-22T06:34:37.584Z,1.10
2022-10-22T06:39:39.158Z,1.75
2022-10-22T06:44:40.571Z,1.40
2022-10-22T06:49:41.964Z,1.52
2022-10-22T06:54:43.345Z,1.65
2022-10-22T06:59:46.383Z,1.30
2022-10-22T07:04:48.207Z,1.17
2022-10-22T07:09:51.359Z,0.95
2022-10-22T07:14:52.969Z,0.88
2022-10-22T07:19:54.352Z,1.30
2022-10-22T07:24:55.736Z,0.80
2022-10-22T07:29:57.186Z,1.10
2022-10-22T07:34:58.588Z,1.10
2022-10-22T07:40:02.996Z,1.33
2022-10-22T07:45:06.091Z,1.42
2022-10-22T07:50:07.817Z,1.50
2022-10-22T07:55:09.534Z,1.40
2022-10-22T08:00:11.464Z,1.40
2022-10-22T08:05:15.756Z,1.23
2022-10-22T08:10:17.358Z,1.10
2022-10-22T08:15:18.872Z,1.13
2022-10-22T08:20:20.363Z,1.38
2022-10-22T08:25:21.801Z,1.40
2022-10-22T08:30:23.224Z,1.00
2022-10-22T08:35:24.787Z,0.80
2022-10-22T08:40:37.509Z,0.85
2022-10-22T08:45:49.659Z,0.90
2022-10-22T08:50:54.607Z,0.80
2022-10-22T08:55:57.096Z,0.80
2022-10-22T09:01:19.167Z,0.70
2022-10-22T09:06:24.529Z,0.73
2022-10-22T09:11:35.510Z,0.82
2022-10-22T09:16:53.151Z,0.80
2022-10-22T09:22:19.574Z,0.93
2022-10-22T09:27:27.935Z,0.77
2022-10-22T09:32:29.339Z,0.40
2022-10-22T09:37:30.788Z,0.50
2022-10-22T09:42:32.199Z,0.45
2022-10-22T09:48:00.436Z,0.30
2022-10-22T09:53:31.698Z,0.30
2022-10-22T09:58:43.432Z,0.30
2022-10-22T10:03:44.870Z,0.20
2022-10-22T10:08:46.567Z,0.20
2022-10-22T10:14:15.573Z,0.40
2022-10-22T10:19:34.101Z,0.38
2022-10-22T10:24:53.750Z,0.60
2022-10-22T10:30:16.721Z,0.30
2022-10-22T10:35:41.342Z,0.30
2022-10-22T10:40:49.940Z,0.35
2022-10-22T10:46:14.525Z,0.20
2022-10-22T10:51:27.630Z,0.30
2022-10-22T10:56:44.579Z,0.20
2022-10-22T11:01:54.618Z,0.28
2022-10-22T11:07:10.762Z,0.20
2022-10-22T11:12:25.931Z,0.10
2022-10-22T11:17:39.268Z,0.05
2022-10-22T11:22:50.474Z,0.00
2022-10-22T11:28:32.209Z,0.10
2022-10-22T11:33:45.988Z,0.32
2022-10-22T11:38:47.626Z,0.20
2022-10-22T11:43:54.907Z,0.10
2022-10-22T11:49:14.680Z,0.10
2022-10-22T11:54:35.972Z,0.10
2022-10-22T11:59:48.225Z,0.13
2022-10-22T12:04:49.913Z,0.00
2022-10-22T12:14:57.839Z,0.22
2022-10-22T12:20:07.456Z,0.20
2022-10-22T12:25:22.386Z,0.20
2022-10-22T12:30:24.997Z,0.10
2022-10-22T12:35:29.076Z,0.20
2022-10-22T12:40:34.532Z,0.20
2022-10-22T12:50:45.158Z,0.10
2022-10-22T12:55:49.789Z,0.20
2022-10-22T13:00:55.839Z,0.10
2022-10-22T13:06:09.560Z,0.10
2022-10-22T13:11:11.947Z,0.40
2022-10-22T13:16:22.351Z,0.28
2022-10-22T13:21:33.640Z,0.20
2022-10-22T13:26:37.149Z,0.10
2022-10-22T13:31:46.885Z,0.20
2022-10-22T13:36:49.026Z,0.20
2022-10-22T13:41:51.473Z,0.20
2022-10-22T13:46:52.929Z,0.20
2022-10-22T13:51:54.327Z,0.20
2022-10-22T13:56:55.714Z,0.20
2022-10-22T14:01:57.142Z,0.20
2022-10-22T14:07:01.272Z,0.25
2022-10-22T14:12:13.067Z,0.37
2022-10-22T14:17:16.423Z,0.20
2022-10-22T14:22:19.056Z,0.20
2022-10-22T14:27:20.474Z,0.30
2022-10-22T14:32:21.907Z,0.22
2022-10-22T14:37:23.301Z,0.20
2022-10-22T14:42:25.900Z,0.28
2022-10-22T14:47:27.306Z,0.30
2022-10-22T14:52:28.713Z,0.20
2022-10-22T14:57:30.122Z,0.40
2022-10-22T15:02:31.772Z,0.28
2022-10-22T15:07:33.262Z,0.20
2022-10-22T15:12:34.851Z,0.20
2022-10-22T15:17:36.272Z,0.20
2022-10-22T15:22:37.687Z,0.30
2022-10-22T15:27:39.465Z,0.30
2022-10-22T15:32:41.145Z,0.30
2022-10-22T15:37:42.802Z,0.32
2022-10-22T15:42:44.253Z,0.35
2022-10-22T15:47:47.620Z,0.30
2022-10-22T15:52:49.532Z,0.60
2022-10-22T15:57:54.269Z,0.60
2022-10-22T16:02:55.767Z,0.65
2022-10-22T16:07:57.165Z,0.90
2022-10-22T16:12:58.561Z,0.88
2022-10-22T16:17:59.945Z,0.80
2022-10-22T16:23:01.375Z,0.60
2022-10-22T16:28:02.820Z,0.70
2022-10-22T16:33:06.526Z,2.00
2022-10-22T16:38:09.645Z,0.70
2022-10-22T16:43:11.079Z,1.10
2022-10-22T16:48:12.490Z,1.55
2022-10-22T16:53:13.895Z,1.20
2022-10-22T16:58:15.309Z,2.22
2022-10-22T17:03:16.794Z,0.90
2022-10-22T17:08:18.313Z,0.90
2022-10-22T17:13:19.709Z,1.05
2022-10-22T17:18:21.090Z,1.13
2022-10-22T17:23:22.514Z,1.15
2022-10-22T17:28:23.955Z,1.20
2022-10-22T17:33:25.347Z,1.40
2022-10-22T17:38:27.853Z,0.95
2022-10-22T17:43:29.289Z,0.90
2022-10-22T17:48:30.691Z,1.00
2022-10-22T17:53:32.127Z,1.23
2022-10-22T17:58:33.561Z,1.50
2022-10-22T18:03:35.154Z,1.48
2022-10-22T18:08:36.715Z,2.20
2022-10-22T18:13:38.612Z,1.88
2022-10-22T18:18:40.048Z,1.90
2022-10-22T18:23:41.544Z,1.48
2022-10-22T18:28:42.961Z,1.27
2022-10-22T18:33:44.584Z,1.70
2022-10-22T18:38:54.300Z,1.15
2022-10-22T18:43:58.402Z,1.45
2022-10-22T18:49:00.011Z,1.60
2022-10-22T18:54:11.279Z,1.15
2022-10-22T18:59:25.205Z,1.45
2022-10-22T19:04:28.162Z,1.13
2022-10-22T19:09:29.814Z,1.50
2022-10-22T19:14:31.816Z,1.48
2022-10-22T19:19:33.242Z,1.00
2022-10-22T19:24:34.643Z,0.95
2022-10-22T19:29:36.350Z,1.50
2022-10-22T19:34:37.842Z,1.20
2022-10-22T19:39:39.249Z,1.27
2022-10-22T19:44:40.768Z,1.20
2022-10-22T19:49:42.168Z,1.30
2022-10-22T19:54:43.608Z,1.20
2022-10-22T19:59:45.632Z,1.17
2022-10-22T20:04:49.874Z,0.95
2022-10-22T20:09:51.521Z,1.08
2022-10-22T20:14:52.944Z,1.42
2022-10-22T20:19:54.356Z,1.50
2022-10-22T20:24:55.755Z,1.20
2022-10-22T20:29:57.181Z,1.60
2022-10-22T20:34:58.607Z,1.23
2022-10-22T20:40:00.250Z,1.60
2022-10-22T20:45:01.664Z,1.75
2022-10-22T20:50:03.635Z,2.22
2022-10-22T20:55:05.580Z,1.38
2022-10-22T21:00:07.968Z,1.60
2022-10-22T21:05:09.423Z,1.40
2022-10-22T21:10:10.885Z,1.92
2022-10-22T21:15:12.837Z,1.25
2022-10-22T21:20:14.586Z,1.73
2022-10-22T21:25:16.057Z,1.58
2022-10-22T21:30:17.491Z,1.42
2022-10-22T21:35:18.881Z,1.25
2022-10-22T21:40:20.258Z,1.60
2022-10-22T21:45:22.567Z,1.30
2022-10-22T21:50:24.064Z,1.85
2022-10-22T21:55:25.569Z,1.45
2022-10-22T22:00:27.096Z,1.52
2022-10-22T22:05:28.899Z,1.48
2022-10-22T22:10:30.305Z,1.40
2022-10-22T22:15:31.754Z,1.40
2022-10-22T22:20:33.139Z,1.92
2022-10-22T22:25:34.560Z,1.90
2022-10-22T22:30:35.980Z,1.50
2022-10-22T22:40:44.043Z,1.83
2022-10-22T22:45:45.448Z,3.50
2022-10-22T22:50:46.892Z,1.40
2022-10-22T22:55:48.505Z,1.50
2022-10-22T23:00:49.917Z,1.40
2022-10-22T23:05:51.342Z,1.30
2022-10-22T23:10:52.745Z,1.40
2022-10-22T23:15:54.139Z,1.70
2022-10-22T23:20:55.539Z,2.10
2022-10-22T23:31:04.293Z,1.33
2022-10-22T23:36:05.945Z,1.10
2022-10-22T23:41:08.086Z,1.33
2022-10-22T23:46:11.591Z,1.80
2022-10-22T23:51:15.062Z,1.27
2022-10-22T23:56:17.984Z,1.00
